Airport View

Enter AWOS ICAO identifier for current METAR.

ex. KFNL

PABR 202352Z 11008KT 10SM FEW008 BKN015 BKN025 03/01 A2957

21 Sep 2019 00:29

Frequency: 132.150

Phone: 907-852-3112

Other Area AWOS: PATQ - PAWI

TAF PABR 202334Z 2100/2124 09010KT P6SM SCT015 OVC025 FM210600 06012KT 6SM BR VCSH SCT007 BKN015 OVC025 FM211800 06015KT 4SM -RASN BR BKN007 OVC014